Time;durP1;ratioP1;P1;durP2;ratioP2;P2;SDS_P1;SDS_P2;PMS_P1;PMS_P2;Temp;Humidity;BMP_temperature;BMP_pressure;BME280_temperature;BME280_humidity;BME280_pressure;Samples;Min_cycle;Max_cycle;Signal;HPM_P1;HPM_P2
2021/01/15 00:01:59;;;;;;;11.05;7.28;;;1.00;92.70;;;;;;4984264;28;20035;-40
2021/01/15 00:04:25;;;;;;;8.57;6.70;;;0.90;92.70;;;;;;4984416;28;20386;-41
2021/01/15 00:06:55;;;;;;;11.25;7.25;;;0.90;92.70;;;;;;4984639;28;20049;-42
2021/01/15 00:09:21;;;;;;;9.23;7.15;;;0.90;92.70;;;;;;4983125;28;20029;-40
2021/01/15 00:11:46;;;;;;;9.68;7.40;;;0.90;92.70;;;;;;4984272;28;20030;-41
2021/01/15 00:14:12;;;;;;;8.32;6.80;;;0.90;92.60;;;;;;4987461;28;20366;-42
2021/01/15 00:16:37;;;;;;;11.70;7.28;;;0.90;92.60;;;;;;4985393;28;20027;-41
2021/01/15 00:19:03;;;;;;;10.98;7.30;;;0.90;92.60;;;;;;4986766;28;20038;-41
2021/01/15 00:21:34;;;;;;;10.27;6.28;;;0.90;92.50;;;;;;4987622;28;20332;-41
2021/01/15 00:24:07;;;;;;;10.88;7.25;;;1.00;92.50;;;;;;4987732;28;20113;-39
2021/01/15 00:26:34;;;;;;;9.00;6.55;;;1.00;92.50;;;;;;4987592;28;20026;-41
2021/01/15 00:28:59;;;;;;;9.38;7.00;;;1.10;92.50;;;;;;4988173;28;20080;-39
2021/01/15 00:31:36;;;;;;;9.70;7.00;;;1.10;92.30;;;;;;4986992;28;20397;-41
2021/01/15 00:34:03;;;;;;;10.30;6.57;;;1.20;92.30;;;;;;4988010;28;20108;-39
2021/01/15 00:36:29;;;;;;;9.00;6.03;;;1.10;92.20;;;;;;4986785;28;20061;-42
2021/01/15 00:38:57;;;;;;;9.18;6.50;;;1.20;92.20;;;;;;4987959;28;20074;-41
2021/01/15 00:41:23;;;;;;;9.07;6.60;;;1.20;92.10;;;;;;4987116;28;20037;-42
2021/01/15 00:43:48;;;;;;;8.25;5.97;;;1.30;92.10;;;;;;4987670;28;20026;-43
2021/01/15 00:46:31;;;;;;;7.00;5.47;;;1.30;92.00;;;;;;4987090;28;20675;-41
2021/01/15 00:48:57;;;;;;;7.72;5.95;;;1.40;92.00;;;;;;4987672;28;20116;-41
2021/01/15 00:51:23;;;;;;;8.40;5.68;;;1.40;91.90;;;;;;4986432;28;20393;-42
2021/01/15 00:53:48;;;;;;;7.22;5.75;;;1.40;91.80;;;;;;4987944;28;20116;-42
2021/01/15 00:56:18;;;;;;;10.27;5.97;;;1.40;91.70;;;;;;4986594;28;20088;-42
2021/01/15 00:58:50;;;;;;;10.15;6.63;;;1.50;91.60;;;;;;4987297;28;20058;-42
2021/01/15 01:01:18;;;;;;;6.97;5.75;;;1.50;91.60;;;;;;4986646;28;20370;-41
2021/01/15 01:03:44;;;;;;;8.77;5.93;;;1.50;91.50;;;;;;4987896;28;20086;-43
2021/01/15 01:06:14;;;;;;;8.50;5.82;;;1.50;91.40;;;;;;4986570;28;20588;-41
2021/01/15 01:08:40;;;;;;;7.30;5.68;;;1.50;91.40;;;;;;4987276;28;20169;-42
2021/01/15 01:11:11;;;;;;;7.88;5.45;;;1.60;91.40;;;;;;4987368;28;20053;-41
2021/01/15 01:13:38;;;;;;;6.75;5.50;;;1.60;91.40;;;;;;4986523;28;20090;-40
2021/01/15 01:16:04;;;;;;;7.63;5.32;;;1.60;91.40;;;;;;4986943;28;20343;-40
2021/01/15 01:18:31;;;;;;;5.78;4.60;;;1.60;91.30;;;;;;4986930;28;20049;-41
2021/01/15 01:20:57;;;;;;;6.00;5.10;;;1.70;91.30;;;;;;4986773;28;20129;-41
2021/01/15 01:23:22;;;;;;;7.97;5.20;;;1.70;91.30;;;;;;4986285;28;20114;-41
2021/01/15 01:25:48;;;;;;;6.72;5.70;;;1.70;91.10;;;;;;4986360;28;20042;-41
2021/01/15 01:28:13;;;;;;;8.98;5.75;;;1.70;91.10;;;;;;4986346;28;20027;-41
2021/01/15 01:30:41;;;;;;;8.25;5.90;;;1.70;91.10;;;;;;4987111;28;20065;-42
2021/01/15 01:33:06;;;;;;;8.20;5.85;;;1.70;91.10;;;;;;4986466;28;20030;-42
2021/01/15 01:35:32;;;;;;;7.57;5.60;;;1.70;91.00;;;;;;4986836;28;20435;-42
2021/01/15 01:37:57;;;;;;;8.65;6.43;;;1.70;91.00;;;;;;4986702;28;20046;-41
2021/01/15 01:40:23;;;;;;;8.13;6.00;;;1.70;91.00;;;;;;4986037;28;20038;-41
2021/01/15 01:42:48;;;;;;;7.63;6.10;;;1.70;90.90;;;;;;4987069;28;20031;-43
2021/01/15 01:45:14;;;;;;;8.13;5.63;;;1.70;90.90;;;;;;4986189;28;20038;-43
2021/01/15 01:47:39;;;;;;;7.45;5.70;;;1.70;90.90;;;;;;4986425;28;20026;-41
2021/01/15 01:50:06;;;;;;;8.30;5.97;;;1.70;90.90;;;;;;4986610;28;20034;-42
2021/01/15 01:52:32;;;;;;;7.25;5.78;;;1.70;90.90;;;;;;4985733;28;20437;-41
2021/01/15 01:55:00;;;;;;;7.28;5.65;;;1.70;90.90;;;;;;4985922;28;20027;-41
2021/01/15 01:57:25;;;;;;;8.93;5.60;;;1.60;90.90;;;;;;4986407;28;20035;-42
2021/01/15 01:59:51;;;;;;;9.32;5.90;;;1.70;90.90;;;;;;4986269;28;20480;-42
2021/01/15 02:02:17;;;;;;;9.63;6.90;;;1.60;90.90;;;;;;4985372;28;20605;-42
2021/01/15 02:04:42;;;;;;;8.70;6.10;;;1.70;90.90;;;;;;4986229;28;20030;-42
2021/01/15 02:07:08;;;;;;;8.85;6.30;;;1.60;90.80;;;;;;4986215;28;20027;-43
2021/01/15 02:09:44;;;;;;;8.65;6.60;;;1.60;90.80;;;;;;4985462;28;20057;-40
2021/01/15 02:12:17;;;;;;;9.18;6.15;;;1.60;90.80;;;;;;4966955;28;20070;-42
2021/01/15 02:15:02;;;;;;;9.70;6.55;;;1.70;91.10;;;;;;4981480;28;20054;-41
2021/01/15 02:17:34;;;;;;;8.52;6.47;;;1.60;90.80;;;;;;4966405;28;20054;-42
2021/01/15 02:20:22;;;;;;;11.27;7.28;;;1.60;90.80;;;;;;4982236;28;20046;-42
2021/01/15 02:23:11;;;;;;;11.50;6.68;;;1.60;90.80;;;;;;4966245;28;20073;-42
2021/01/15 02:25:55;;;;;;;10.05;7.05;;;1.60;90.80;;;;;;4985760;28;20041;-41
2021/01/15 02:28:45;;;;;;;9.57;7.60;;;1.60;90.80;;;;;;4985569;28;20026;-42
2021/01/15 02:31:31;;;;;;;10.25;7.45;;;1.60;90.80;;;;;;4983125;28;20046;-42
2021/01/15 02:34:31;;;;;;;12.00;8.05;;;1.60;90.80;;;;;;4985613;28;20062;-42
2021/01/15 02:37:21;;;;;;;9.40;6.72;;;1.60;90.80;;;;;;4976161;28;20104;-42
2021/01/15 02:40:14;;;;;;;9.70;7.43;;;1.60;90.90;;;;;;4985655;28;20466;-42
2021/01/15 02:42:41;;;;;;;8.65;6.53;;;1.60;90.80;;;;;;4985875;28;20030;-42
2021/01/15 02:45:12;;;;;;;9.98;7.32;;;1.70;90.90;;;;;;4985018;28;20030;-42
2021/01/15 02:47:56;;;;;;;10.10;7.55;;;1.60;90.90;;;;;;4985661;28;20088;-42
2021/01/15 02:50:26;;;;;;;9.60;6.78;;;1.70;91.20;;;;;;4984691;28;20475;-44
2021/01/15 02:52:53;;;;;;;9.10;7.28;;;1.70;90.90;;;;;;4985543;28;20256;-42
2021/01/15 02:55:20;;;;;;;9.52;7.75;;;1.70;90.90;;;;;;4984988;28;20034;-42
2021/01/15 02:57:46;;;;;;;10.82;7.18;;;1.70;90.90;;;;;;4985172;28;20140;-41
2021/01/15 03:00:17;;;;;;;10.27;7.13;;;1.70;90.90;;;;;;4984881;28;20022;-41
2021/01/15 03:03:07;;;;;;;10.65;7.53;;;1.70;91.00;;;;;;4985354;28;20031;-41
2021/01/15 03:05:41;;;;;;;10.25;7.63;;;1.70;91.00;;;;;;4984152;28;20538;-42
2021/01/15 03:08:08;;;;;;;9.77;7.32;;;1.70;91.00;;;;;;4985132;28;20030;-42
2021/01/15 03:10:34;;;;;;;10.52;7.45;;;1.70;91.00;;;;;;4984515;28;20536;-41
2021/01/15 03:13:02;;;;;;;10.40;7.60;;;1.70;91.00;;;;;;4984513;28;20034;-40
2021/01/15 03:15:33;;;;;;;9.93;7.28;;;1.70;91.00;;;;;;4984273;28;20085;-42
2021/01/15 03:17:59;;;;;;;9.18;6.68;;;1.70;91.10;;;;;;4984863;28;20420;-41
2021/01/15 03:20:26;;;;;;;9.80;7.32;;;1.70;91.10;;;;;;4984014;28;20027;-42
2021/01/15 03:22:52;;;;;;;10.32;7.45;;;1.70;91.10;;;;;;4985168;28;20022;-42
2021/01/15 03:25:18;;;;;;;10.07;7.70;;;1.70;91.20;;;;;;4983771;28;20026;-43
2021/01/15 03:27:55;;;;;;;11.88;8.68;;;1.70;91.20;;;;;;4984769;28;20022;-42
2021/01/15 03:30:30;;;;;;;12.85;7.97;;;1.70;91.30;;;;;;4984315;28;20042;-42
2021/01/15 03:32:58;;;;;;;12.05;8.25;;;1.70;91.30;;;;;;4983362;28;20096;-42
2021/01/15 03:35:25;;;;;;;11.35;8.10;;;1.70;91.30;;;;;;4984351;28;20058;-42
2021/01/15 03:38:00;;;;;;;10.40;8.00;;;1.70;91.40;;;;;;4984403;28;20022;-41
2021/01/15 03:40:30;;;;;;;10.27;7.57;;;1.70;91.40;;;;;;4983932;28;20042;-41
2021/01/15 03:42:56;;;;;;;11.30;7.97;;;1.70;91.50;;;;;;4984096;28;20026;-44
2021/01/15 03:45:22;;;;;;;12.38;8.38;;;1.70;91.50;;;;;;4984041;28;20037;-42
2021/01/15 03:47:48;;;;;;;13.13;8.55;;;1.70;91.60;;;;;;4984102;28;20026;-42
2021/01/15 03:50:14;;;;;;;12.50;8.63;;;1.70;91.60;;;;;;4983962;28;20085;-40
2021/01/15 03:52:42;;;;;;;11.90;8.13;;;1.70;91.70;;;;;;4984416;28;20026;-42
2021/01/15 03:55:08;;;;;;;12.35;8.40;;;1.70;91.70;;;;;;4984094;28;20146;-41
2021/01/15 03:57:34;;;;;;;10.82;8.05;;;1.70;91.80;;;;;;4983713;28;20318;-43
2021/01/15 04:00:01;;;;;;;10.70;7.75;;;1.70;91.80;;;;;;4984612;28;20104;-43
2021/01/15 04:02:26;;;;;;;11.73;7.57;;;1.70;91.80;;;;;;4983387;28;20041;-42
2021/01/15 04:04:52;;;;;;;13.50;8.77;;;1.70;91.90;;;;;;4984755;28;20060;-42
2021/01/15 04:07:21;;;;;;;9.85;7.72;;;1.70;91.90;;;;;;4983438;28;20488;-43
2021/01/15 04:09:46;;;;;;;12.45;8.10;;;1.70;91.90;;;;;;4983935;28;20037;-43
2021/01/15 04:12:12;;;;;;;13.18;9.00;;;1.70;92.00;;;;;;4984207;28;20031;-42
2021/01/15 04:14:42;;;;;;;11.23;8.63;;;1.70;92.00;;;;;;4983816;28;20513;-42
2021/01/15 04:17:08;;;;;;;12.55;9.65;;;1.70;92.00;;;;;;4984295;28;20026;-42
2021/01/15 04:19:33;;;;;;;13.18;8.80;;;1.70;92.10;;;;;;4983785;28;20756;-42
2021/01/15 04:21:59;;;;;;;11.07;7.97;;;1.70;92.10;;;;;;4983633;28;20054;-42
2021/01/15 04:24:25;;;;;;;10.95;7.47;;;1.70;92.10;;;;;;4983259;28;20536;-42
2021/01/15 04:26:54;;;;;;;13.43;8.27;;;1.80;92.20;;;;;;4984405;28;20054;-41
2021/01/15 04:29:20;;;;;;;10.77;8.38;;;1.70;92.10;;;;;;4983152;28;20117;-42
2021/01/15 04:31:46;;;;;;;10.75;8.65;;;1.80;92.20;;;;;;4984314;28;20141;-42
2021/01/15 04:34:12;;;;;;;10.65;7.95;;;1.70;92.20;;;;;;4983822;28;20057;-41
2021/01/15 04:36:37;;;;;;;14.35;9.15;;;1.70;92.20;;;;;;4983705;28;20090;-42
2021/01/15 04:39:04;;;;;;;10.35;7.68;;;1.70;92.20;;;;;;4983614;28;20081;-42
2021/01/15 04:41:33;;;;;;;10.18;7.53;;;1.80;92.30;;;;;;4983848;28;20026;-42
2021/01/15 04:44:00;;;;;;;9.30;7.20;;;1.80;92.30;;;;;;4983618;28;20033;-40
2021/01/15 04:46:26;;;;;;;9.52;7.65;;;1.80;92.30;;;;;;4983423;28;20529;-41
2021/01/15 04:48:53;;;;;;;11.55;7.90;;;1.80;92.30;;;;;;4984179;28;20030;-44
2021/01/15 04:51:26;;;;;;;10.10;7.00;;;1.80;92.30;;;;;;4983261;28;20034;-43
2021/01/15 04:54:02;;;;;;;;;;;1.80;92.30;;;;;;4984349;28;20107;-40
2021/01/15 04:56:54;;;;;;;9.52;7.10;;;1.80;92.30;;;;;;4983779;28;19909;-41
2021/01/15 04:59:21;;;;;;;9.97;7.23;;;1.70;92.20;;;;;;4983442;28;20046;-45
2021/01/15 05:01:48;;;;;;;9.95;7.45;;;1.70;92.30;;;;;;4987537;28;20034;-42
2021/01/15 05:04:16;;;;;;;11.60;7.75;;;1.70;92.30;;;;;;4986017;28;20049;-42
2021/01/15 05:06:52;;;;;;;11.38;8.00;;;1.70;92.40;;;;;;4987416;28;20113;-42
2021/01/15 05:09:22;;;;;;;10.27;7.65;;;1.70;92.40;;;;;;4986557;28;20029;-41
2021/01/15 05:11:50;;;;;;;11.32;8.48;;;1.70;92.40;;;;;;4976250;28;20027;-41
2021/01/15 05:14:17;;;;;;;13.35;8.68;;;1.70;92.40;;;;;;4986491;28;20170;-42
2021/01/15 05:16:45;;;;;;;11.95;8.68;;;1.70;92.40;;;;;;4986811;28;20045;-41
2021/01/15 05:19:12;;;;;;;12.02;7.93;;;1.70;92.50;;;;;;4985874;28;20039;-41
2021/01/15 05:21:39;;;;;;;13.70;9.48;;;1.70;92.50;;;;;;4987261;28;20018;-41
2021/01/15 05:24:06;;;;;;;11.73;8.70;;;1.70;92.50;;;;;;4987139;28;20057;-39
2021/01/15 05:26:39;;;;;;;14.43;9.45;;;1.70;92.50;;;;;;4986369;28;20108;-41
2021/01/15 05:29:07;;;;;;;12.07;8.75;;;1.70;92.50;;;;;;4986864;28;20434;-42
2021/01/15 05:31:57;;;;;;;11.82;8.35;;;1.70;92.50;;;;;;4986104;28;20212;-41
2021/01/15 05:34:27;;;;;;;11.95;8.10;;;1.70;92.50;;;;;;4986361;28;20041;-42
2021/01/15 05:36:54;;;;;;;11.13;8.30;;;1.70;92.50;;;;;;4986284;28;20475;-42
2021/01/15 05:39:24;;;;;;;12.20;8.55;;;1.80;92.60;;;;;;4985458;28;20046;-42
2021/01/15 05:41:58;;;;;;;12.55;9.38;;;1.80;92.90;;;;;;4986670;28;20081;-42
2021/01/15 05:44:28;;;;;;;15.63;10.15;;;1.80;92.60;;;;;;4986095;28;20117;-40
2021/01/15 05:46:54;;;;;;;12.48;8.82;;;1.80;92.60;;;;;;4986085;28;20129;-41
2021/01/15 05:49:20;;;;;;;13.07;8.82;;;1.80;92.70;;;;;;4986169;28;20136;-42
2021/01/15 05:51:46;;;;;;;11.75;8.23;;;1.80;92.70;;;;;;4986279;28;20121;-43
2021/01/15 05:54:11;;;;;;;13.40;7.88;;;1.80;92.70;;;;;;4985677;28;20030;-42
2021/01/15 05:56:45;;;;;;;10.00;7.78;;;1.80;92.70;;;;;;4986377;28;20036;-43
2021/01/15 05:59:18;;;;;;;12.18;8.48;;;1.80;92.70;;;;;;4986210;28;20030;-41
2021/01/15 06:01:44;;;;;;;14.20;9.75;;;1.80;92.70;;;;;;4986008;28;20049;-41
2021/01/15 06:04:12;;;;;;;14.00;8.70;;;1.80;92.70;;;;;;4985802;28;20058;-42
2021/01/15 06:06:39;;;;;;;12.98;9.18;;;1.80;92.80;;;;;;4986000;28;20029;-42
2021/01/15 06:09:06;;;;;;;14.52;9.30;;;1.80;92.80;;;;;;4985894;28;20104;-42
2021/01/15 06:11:37;;;;;;;15.50;8.77;;;1.80;92.80;;;;;;4985017;28;20380;-42
2021/01/15 06:14:19;;;;;;;12.73;9.25;;;1.80;92.80;;;;;;4985517;28;20097;-43
2021/01/15 06:16:45;;;;;;;15.13;9.93;;;1.80;92.80;;;;;;4986091;28;20034;-41
2021/01/15 06:19:11;;;;;;;13.55;9.23;;;1.80;92.80;;;;;;4985299;28;20041;-43
2021/01/15 06:21:36;;;;;;;13.57;8.95;;;1.80;92.90;;;;;;4985321;28;20023;-42
2021/01/15 06:24:07;;;;;;;13.57;9.15;;;1.80;92.90;;;;;;4985930;28;20050;-41
2021/01/15 06:26:38;;;;;;;14.38;9.63;;;1.80;92.90;;;;;;4985435;28;20236;-42
2021/01/15 06:29:12;;;;;;;13.10;9.23;;;1.80;92.90;;;;;;4985301;28;20771;-43
2021/01/15 06:31:49;;;;;;;14.27;9.75;;;1.80;92.90;;;;;;4985465;28;20105;-41
2021/01/15 06:34:16;;;;;;;14.15;9.85;;;1.80;93.00;;;;;;4982893;28;20022;-42
2021/01/15 06:36:54;;;;;;;12.20;8.82;;;1.80;93.00;;;;;;4985025;28;20465;-42
2021/01/15 06:39:21;;;;;;;13.80;8.73;;;1.80;93.00;;;;;;4981748;28;20121;-42
2021/01/15 06:41:59;;;;;;;13.60;9.40;;;1.80;93.00;;;;;;4985733;28;20030;-40
2021/01/15 06:44:26;;;;;;;14.20;9.50;;;1.80;93.00;;;;;;4984115;28;20041;-42
2021/01/15 06:46:53;;;;;;;12.55;9.10;;;1.80;93.00;;;;;;4984583;28;20092;-42
2021/01/15 06:49:30;;;;;;;14.77;9.70;;;1.80;93.00;;;;;;4980053;28;20105;-41
2021/01/15 06:51:59;;;;;;;15.38;10.02;;;1.80;93.00;;;;;;4977719;28;20493;-43
2021/01/15 06:54:38;;;;;;;15.77;9.60;;;1.80;93.10;;;;;;4978240;28;20014;-42
2021/01/15 06:57:25;;;;;;;13.82;8.77;;;1.90;93.10;;;;;;4962672;28;20035;-42
2021/01/15 06:59:53;;;;;;;13.80;8.68;;;1.90;93.10;;;;;;4982998;28;20042;-43
2021/01/15 07:02:47;;;;;;;14.25;9.73;;;1.80;93.10;;;;;;4983093;28;20022;-42
2021/01/15 07:05:15;;;;;;;14.82;9.23;;;1.80;93.10;;;;;;4980823;28;20026;-43
2021/01/15 07:07:44;;;;;;;14.70;10.20;;;1.80;93.10;;;;;;4984835;28;20065;-46
2021/01/15 07:10:10;;;;;;;15.82;10.18;;;1.90;93.10;;;;;;4984331;28;20086;-44
2021/01/15 07:12:43;;;;;;;16.30;9.90;;;1.90;93.20;;;;;;4984755;28;20034;-42
2021/01/15 07:15:12;;;;;;;;;;;1.90;93.20;;;;;;4976736;28;20519;-42
2021/01/15 07:17:43;;;;;;;17.33;10.05;;;1.90;93.20;;;;;;4980495;28;19910;-42
2021/01/15 07:20:19;;;;;;;16.15;9.98;;;1.90;93.10;;;;;;4984657;28;20072;-42
2021/01/15 07:22:49;;;;;;;14.30;10.23;;;1.90;93.20;;;;;;4984682;28;20077;-43
2021/01/15 07:25:16;;;;;;;15.73;10.93;;;1.90;93.20;;;;;;4983602;28;20129;-42
2021/01/15 07:27:42;;;;;;;14.88;10.68;;;1.90;93.20;;;;;;4985141;28;20101;-42
2021/01/15 07:30:11;;;;;;;15.88;10.38;;;1.90;93.20;;;;;;4984918;28;20109;-43
2021/01/15 07:32:40;;;;;;;17.05;10.57;;;1.90;93.30;;;;;;4984800;28;20034;-44
2021/01/15 07:35:15;;;;;;;15.95;10.48;;;1.90;93.30;;;;;;4985299;28;20067;-42
2021/01/15 07:37:40;;;;;;;14.18;10.15;;;1.90;93.30;;;;;;4985574;28;20034;-42
2021/01/15 07:40:20;;;;;;;15.75;10.35;;;1.90;93.30;;;;;;4984900;28;20038;-43
2021/01/15 07:42:57;;;;;;;16.50;9.73;;;1.90;93.30;;;;;;4985786;28;20121;-42
2021/01/15 07:45:23;;;;;;;15.52;10.70;;;1.90;93.30;;;;;;4984802;28;20019;-42
2021/01/15 07:47:50;;;;;;;15.65;10.57;;;1.90;93.30;;;;;;4977749;28;20469;-41
2021/01/15 07:50:53;;;;;;;14.18;10.38;;;1.90;93.30;;;;;;4974521;28;20030;-42
2021/01/15 07:53:27;;;;;;;13.70;9.73;;;2.00;93.40;;;;;;4980615;28;20053;-42
2021/01/15 07:55:58;;;;;;;16.98;10.55;;;1.90;93.30;;;;;;4984457;28;20292;-42
2021/01/15 07:58:38;;;;;;;14.75;9.88;;;1.90;93.40;;;;;;4984631;28;20093;-42
2021/01/15 08:01:08;;;;;;;13.52;9.57;;;2.00;93.40;;;;;;4983731;28;20046;-43
2021/01/15 08:03:46;;;;;;;13.43;8.93;;;1.90;93.40;;;;;;4984184;28;20033;-42
2021/01/15 08:06:16;;;;;;;13.60;9.43;;;2.00;93.40;;;;;;4984240;28;20105;-42
2021/01/15 08:09:03;;;;;;;14.35;9.75;;;2.00;93.40;;;;;;4984242;28;20026;-41
2021/01/15 08:11:30;;;;;;;12.13;9.00;;;2.00;93.40;;;;;;4983282;28;20482;-41
2021/01/15 08:14:21;;;;;;;13.55;9.70;;;2.00;93.40;;;;;;4983955;28;20498;-42
2021/01/15 08:16:48;;;;;;;14.45;9.75;;;2.00;93.40;;;;;;4984829;28;20033;-41
2021/01/15 08:19:24;;;;;;;13.70;9.70;;;2.00;93.40;;;;;;4983955;28;20038;-45
2021/01/15 08:21:54;;;;;;;14.02;9.57;;;2.00;93.50;;;;;;4983867;28;20513;-41
2021/01/15 08:24:22;;;;;;;14.60;9.82;;;2.00;93.50;;;;;;4984247;28;20026;-44
2021/01/15 08:26:55;;;;;;;13.93;9.25;;;2.00;93.50;;;;;;4984094;28;20105;-44
2021/01/15 08:29:22;;;;;;;14.38;9.75;;;2.00;93.50;;;;;;4983207;28;20019;-43
2021/01/15 08:31:59;;;;;;;12.73;9.02;;;2.00;93.90;;;;;;4984446;28;20018;-42
2021/01/15 08:34:32;;;;;;;13.35;8.80;;;2.10;93.60;;;;;;4985789;28;20049;-42
2021/01/15 08:37:00;;;;;;;12.10;8.13;;;2.10;93.60;;;;;;4987114;28;20070;-41
2021/01/15 08:39:25;;;;;;;13.27;8.70;;;2.20;93.60;;;;;;4987742;28;20050;-40
2021/01/15 08:41:58;;;;;;;15.38;10.88;;;2.20;93.50;;;;;;4987169;28;20167;-45
2021/01/15 08:44:25;;;;;;;13.95;9.48;;;2.20;93.50;;;;;;4987715;28;20080;-43
2021/01/15 08:46:52;;;;;;;15.50;9.70;;;2.20;93.50;;;;;;4988267;28;20708;-43
2021/01/15 08:49:17;;;;;;;12.93;9.10;;;2.20;93.50;;;;;;4986833;28;20428;-42
2021/01/15 08:51:49;;;;;;;13.63;10.15;;;2.20;93.40;;;;;;4987940;28;20513;-42
2021/01/15 08:54:15;;;;;;;15.73;9.38;;;2.20;93.40;;;;;;4987393;28;20022;-40
2021/01/15 08:56:43;;;;;;;12.00;9.30;;;2.20;93.50;;;;;;4986954;28;20418;-41
2021/01/15 08:59:13;;;;;;;11.95;8.55;;;2.20;93.40;;;;;;4987662;28;20031;-42
2021/01/15 09:01:42;;;;;;;12.60;9.25;;;2.30;93.50;;;;;;4987928;28;20133;-42
2021/01/15 09:04:10;;;;;;;12.95;8.85;;;2.20;93.40;;;;;;4983596;28;20058;-42
2021/01/15 09:06:36;;;;;;;12.88;9.00;;;2.20;93.40;;;;;;4987373;28;20033;-41
2021/01/15 09:09:08;;;;;;;14.27;8.95;;;2.20;93.40;;;;;;4985528;28;20030;-42
2021/01/15 09:11:37;;;;;;;12.98;9.20;;;2.20;93.50;;;;;;4986046;28;20034;-42
2021/01/15 09:14:04;;;;;;;13.55;9.15;;;2.30;93.50;;;;;;4987012;28;20073;-42
2021/01/15 09:16:30;;;;;;;15.98;9.45;;;2.20;93.40;;;;;;4987161;28;20084;-43
2021/01/15 09:19:04;;;;;;;13.88;9.77;;;2.20;93.40;;;;;;4986931;28;20042;-42
2021/01/15 09:21:30;;;;;;;13.95;9.23;;;2.20;93.50;;;;;;4967474;28;20343;-40
2021/01/15 09:23:55;;;;;;;13.23;9.73;;;2.20;93.40;;;;;;4981464;28;20042;-42
2021/01/15 09:26:21;;;;;;;13.25;9.27;;;2.20;93.40;;;;;;4987029;28;20030;-42
2021/01/15 09:28:46;;;;;;;15.27;10.38;;;2.20;93.50;;;;;;4987062;28;20221;-41
2021/01/15 09:31:12;;;;;;;15.50;9.95;;;2.20;93.50;;;;;;4986442;28;20366;-43
2021/01/15 09:33:47;;;;;;;16.85;11.15;;;2.20;93.50;;;;;;4986771;28;20121;-42
2021/01/15 09:36:24;;;;;;;13.32;9.00;;;2.20;93.50;;;;;;4981605;28;20101;-42
2021/01/15 09:38:51;;;;;;;15.77;10.27;;;2.20;93.60;;;;;;4981722;28;20065;-43
2021/01/15 09:41:17;;;;;;;14.80;9.43;;;2.20;93.60;;;;;;4986014;28;20056;-43
2021/01/15 09:43:43;;;;;;;14.73;10.25;;;2.20;93.60;;;;;;4987360;28;20050;-43
2021/01/15 09:46:28;;;;;;;14.13;9.70;;;2.20;93.60;;;;;;4985957;28;20018;-43
2021/01/15 09:48:58;;;;;;;14.18;9.63;;;2.30;93.60;;;;;;4983997;28;20034;-42
2021/01/15 09:51:27;;;;;;;10.70;8.60;;;2.30;93.60;;;;;;4977386;28;20045;-41
2021/01/15 09:53:57;;;;;;;13.90;10.23;;;2.30;93.50;;;;;;4986293;28;20026;-41
2021/01/15 09:56:30;;;;;;;14.20;9.73;;;2.30;93.50;;;;;;4986273;28;20136;-42
2021/01/15 09:58:57;;;;;;;12.90;9.18;;;2.30;93.50;;;;;;4986085;28;20524;-42
2021/01/15 10:01:24;;;;;;;13.30;9.77;;;2.30;93.50;;;;;;4982262;28;20035;-41
2021/01/15 10:03:51;;;;;;;13.65;9.68;;;2.30;93.50;;;;;;4976639;28;20042;-41
2021/01/15 10:06:18;;;;;;;14.43;9.95;;;2.30;93.50;;;;;;4979604;28;20018;-40
2021/01/15 10:08:44;;;;;;;12.15;9.07;;;2.30;93.50;;;;;;4973823;28;20113;-41
2021/01/15 10:11:28;;;;;;;13.45;8.80;;;2.30;93.50;;;;;;4985271;28;20034;-41
2021/01/15 10:13:58;;;;;;;13.88;8.90;;;2.40;93.60;;;;;;4985005;28;20042;-42
2021/01/15 10:16:24;;;;;;;12.93;8.30;;;2.40;93.50;;;;;;4984530;28;20442;-42
2021/01/15 10:18:51;;;;;;;11.48;8.02;;;2.50;93.50;;;;;;4975578;28;20042;-41
2021/01/15 10:21:24;;;;;;;13.90;9.65;;;2.50;93.40;;;;;;4981431;28;20022;-42
2021/01/15 10:23:55;;;;;;;14.32;9.27;;;2.50;93.30;;;;;;4981517;28;20034;-42
2021/01/15 10:26:26;;;;;;;14.82;9.45;;;2.50;93.30;;;;;;4977321;28;20019;-43
2021/01/15 10:28:59;;;;;;;16.98;9.90;;;2.50;93.20;;;;;;4979522;28;20022;-42
2021/01/15 10:31:53;;;;;;;11.70;8.55;;;2.50;93.20;;;;;;4984702;28;20061;-42
2021/01/15 10:34:19;;;;;;;14.88;8.88;;;2.60;93.20;;;;;;4965335;28;20664;-42
2021/01/15 10:36:45;;;;;;;11.75;8.57;;;2.60;93.20;;;;;;4983481;28;20121;-42
2021/01/15 10:39:14;;;;;;;12.30;9.20;;;2.60;93.10;;;;;;4985206;28;20026;-42
2021/01/15 10:41:42;;;;;;;12.82;9.10;;;2.60;93.10;;;;;;4985286;28;20030;-43
2021/01/15 10:44:09;;;;;;;14.23;9.45;;;2.60;93.00;;;;;;4980194;28;20406;-42
2021/01/15 10:46:37;;;;;;;13.30;9.80;;;2.60;93.00;;;;;;4982578;28;20053;-41
2021/01/15 10:49:22;;;;;;;14.43;9.85;;;2.50;93.00;;;;;;4977839;28;20098;-43
2021/01/15 10:51:50;;;;;;;12.30;9.20;;;2.60;93.00;;;;;;4980964;28;20045;-42
2021/01/15 10:54:16;;;;;;;12.27;8.32;;;2.60;93.00;;;;;;4982762;28;20558;-42
2021/01/15 10:56:45;;;;;;;13.55;9.18;;;2.60;93.00;;;;;;4984450;28;20737;-42
2021/01/15 10:59:11;;;;;;;12.82;8.80;;;2.60;92.90;;;;;;4984639;28;20034;-42
2021/01/15 11:01:40;;;;;;;13.00;9.75;;;2.60;92.90;;;;;;4985210;28;20030;-42
2021/01/15 11:04:10;;;;;;;12.77;9.05;;;2.60;92.90;;;;;;4984163;28;20795;-42
2021/01/15 11:06:36;;;;;;;13.20;8.93;;;2.70;92.90;;;;;;4984683;28;20430;-41
2021/01/15 11:09:06;;;;;;;12.95;8.75;;;2.70;92.80;;;;;;4985516;28;20122;-42
2021/01/15 11:11:32;;;;;;;13.02;9.18;;;2.70;92.80;;;;;;4984292;28;20382;-42
2021/01/15 11:13:58;;;;;;;11.65;8.02;;;2.70;92.80;;;;;;4984661;28;20050;-42
2021/01/15 11:16:24;;;;;;;11.45;8.73;;;2.70;92.70;;;;;;4968803;28;20459;-42
2021/01/15 11:18:50;;;;;;;11.48;8.70;;;2.80;92.70;;;;;;4984276;28;20050;-42
2021/01/15 11:21:26;;;;;;;15.25;8.98;;;2.80;92.60;;;;;;4984092;28;20038;-42
2021/01/15 11:23:53;;;;;;;12.30;8.88;;;2.70;92.60;;;;;;4981591;28;20041;-42
2021/01/15 11:26:26;;;;;;;13.48;9.45;;;2.70;92.60;;;;;;4984472;28;20027;-41
2021/01/15 11:28:56;;;;;;;14.65;8.50;;;2.70;92.60;;;;;;4984111;28;20037;-41
2021/01/15 11:31:23;;;;;;;11.80;9.35;;;2.70;92.60;;;;;;4984153;28;20113;-43
2021/01/15 11:33:49;;;;;;;12.90;9.02;;;2.80;92.70;;;;;;4984698;28;20470;-43
2021/01/15 11:36:16;;;;;;;12.27;9.15;;;2.80;92.60;;;;;;4984253;28;20034;-44
2021/01/15 11:38:45;;;;;;;10.88;7.97;;;2.80;92.50;;;;;;4984587;28;20116;-42
2021/01/15 11:41:17;;;;;;;13.95;8.55;;;2.80;92.50;;;;;;4965438;28;20027;-42
2021/01/15 11:43:44;;;;;;;11.23;8.33;;;2.90;92.50;;;;;;4980658;28;20030;-42
2021/01/15 11:46:10;;;;;;;12.00;9.65;;;2.80;92.50;;;;;;4983533;28;20381;-43
2021/01/15 11:48:37;;;;;;;13.88;9.68;;;2.90;92.80;;;;;;4981734;28;20033;-43
2021/01/15 11:51:04;;;;;;;13.07;9.68;;;2.90;92.50;;;;;;4977361;28;20328;-42
2021/01/15 11:53:36;;;;;;;12.35;9.35;;;2.80;92.50;;;;;;4975163;28;20448;-42
2021/01/15 11:56:06;;;;;;;12.60;9.25;;;2.90;92.50;;;;;;4984591;28;20026;-42
2021/01/15 11:58:33;;;;;;;12.38;8.98;;;2.90;92.50;;;;;;4983941;28;20082;-43
2021/01/15 12:00:59;;;;;;;14.13;10.02;;;2.90;92.60;;;;;;4983574;28;20030;-43
2021/01/15 12:03:25;;;;;;;13.23;10.02;;;2.90;92.50;;;;;;4985033;28;20046;-41
2021/01/15 12:05:51;;;;;;;14.93;10.55;;;2.80;92.40;;;;;;4984875;28;20026;-42
2021/01/15 12:08:19;;;;;;;14.77;10.25;;;2.80;92.40;;;;;;4976263;28;20075;-42
2021/01/15 12:10:46;;;;;;;15.52;10.82;;;2.80;92.40;;;;;;4988555;28;20120;-42
2021/01/15 12:13:12;;;;;;;13.77;9.40;;;2.80;92.40;;;;;;4987583;28;20126;-44
2021/01/15 12:15:37;;;;;;;12.57;9.60;;;2.80;92.50;;;;;;4988128;28;20439;-42
2021/01/15 12:18:06;;;;;;;13.40;9.95;;;2.80;92.40;;;;;;4988597;28;20045;-41
2021/01/15 12:20:38;;;;;;;13.63;10.23;;;2.80;92.50;;;;;;4987429;28;20038;-42
2021/01/15 12:23:04;;;;;;;15.07;10.30;;;2.80;92.40;;;;;;4988690;28;20038;-42
2021/01/15 12:25:29;;;;;;;14.13;10.10;;;2.90;92.40;;;;;;4987711;28;21026;-42
2021/01/15 12:27:55;;;;;;;14.23;10.00;;;2.90;92.40;;;;;;4988018;28;20442;-43
2021/01/15 12:30:22;;;;;;;16.13;11.02;;;2.90;92.40;;;;;;4987907;28;20185;-42
2021/01/15 12:32:48;;;;;;;18.20;11.52;;;2.90;92.30;;;;;;4988477;28;20034;-42
2021/01/15 12:35:14;;;;;;;15.60;10.50;;;2.90;92.30;;;;;;4987156;28;20033;-39
2021/01/15 12:37:39;;;;;;;14.00;10.23;;;2.90;92.30;;;;;;4988493;28;20252;-44
2021/01/15 12:40:05;;;;;;;19.38;10.50;;;3.00;92.30;;;;;;4987682;28;20425;-42
2021/01/15 12:42:31;;;;;;;13.52;10.07;;;2.90;92.20;;;;;;4987114;28;20745;-44
2021/01/15 12:44:57;;;;;;;13.85;9.80;;;2.90;92.20;;;;;;4987915;28;20053;-43
2021/01/15 12:47:22;;;;;;;13.65;10.25;;;3.00;92.30;;;;;;4987736;28;20033;-40
2021/01/15 12:49:48;;;;;;;16.42;11.15;;;3.00;92.20;;;;;;4987625;28;20106;-42
2021/01/15 12:52:18;;;;;;;13.93;10.88;;;2.90;92.20;;;;;;4987237;28;20041;-42
2021/01/15 12:54:43;;;;;;;16.65;11.77;;;2.90;92.10;;;;;;4988012;28;20496;-42
2021/01/15 12:57:09;;;;;;;15.18;10.68;;;2.90;92.20;;;;;;4987080;28;20204;-43
2021/01/15 12:59:35;;;;;;;13.10;10.43;;;2.90;92.20;;;;;;4987332;28;20061;-44
2021/01/15 13:02:00;;;;;;;15.55;10.30;;;2.90;92.30;;;;;;4987170;28;20752;-42